sensor_id;sensor_type;location;lat;lon;timestamp;pressure;altitude;pressure_sealevel;temperature;humidity
53041;BME280;39326;42.650;23.248;2023-07-13T00:01:27;92907.97;;;22.68;47.11
53041;BME280;39326;42.650;23.248;2023-07-13T00:03:53;92908.91;;;22.65;47.04
53041;BME280;39326;42.650;23.248;2023-07-13T00:06:19;92900.41;;;22.63;46.85
53041;BME280;39326;42.650;23.248;2023-07-13T00:08:45;92905.56;;;22.61;47.03
53041;BME280;39326;42.650;23.248;2023-07-13T00:11:12;92906.44;;;22.58;47.29
53041;BME280;39326;42.650;23.248;2023-07-13T00:13:38;92897.69;;;22.54;47.47
53041;BME280;39326;42.650;23.248;2023-07-13T00:16:05;92897.69;;;22.54;47.51
53041;BME280;39326;42.650;23.248;2023-07-13T00:18:30;92888.44;;;22.52;47.57
53041;BME280;39326;42.650;23.248;2023-07-13T00:20:57;92894.63;;;22.52;47.81
53041;BME280;39326;42.650;23.248;2023-07-13T00:23:33;92882.41;;;22.48;48.04
53041;BME280;39326;42.650;23.248;2023-07-13T00:26:00;92883.75;;;22.43;48.12
53041;BME280;39326;42.650;23.248;2023-07-13T00:28:26;92884.66;;;22.40;48.21
53041;BME280;39326;42.650;23.248;2023-07-13T00:30:51;92877.50;;;22.33;47.93
53041;BME280;39326;42.650;23.248;2023-07-13T00:33:17;92881.44;;;22.32;48.39
53041;BME280;39326;42.650;23.248;2023-07-13T00:35:42;92883.41;;;22.32;48.85
53041;BME280;39326;42.650;23.248;2023-07-13T00:38:09;92882.81;;;22.28;48.51
53041;BME280;39326;42.650;23.248;2023-07-13T00:40:34;92879.47;;;22.24;49.01
53041;BME280;39326;42.650;23.248;2023-07-13T00:43:00;92883.84;;;22.21;49.11
53041;BME280;39326;42.650;23.248;2023-07-13T00:47:51;92886.66;;;22.08;49.91
53041;BME280;39326;42.650;23.248;2023-07-13T00:50:17;92875.19;;;22.13;48.97
53041;BME280;39326;42.650;23.248;2023-07-13T00:52:46;92880.34;;;22.11;48.96
53041;BME280;39326;42.650;23.248;2023-07-13T00:55:13;92883.19;;;22.08;48.84
53041;BME280;39326;42.650;23.248;2023-07-13T00:57:40;92875.13;;;21.95;49.65
53041;BME280;39326;42.650;23.248;2023-07-13T01:00:07;92878.34;;;22.03;48.86
53041;BME280;39326;42.650;23.248;2023-07-13T01:02:35;92877.00;;;22.07;48.87
53041;BME280;39326;42.650;23.248;2023-07-13T01:05:12;92876.13;;;22.10;49.64
53041;BME280;39326;42.650;23.248;2023-07-13T01:07:39;92868.09;;;22.07;49.69
53041;BME280;39326;42.650;23.248;2023-07-13T01:10:06;92868.38;;;22.00;49.77
53041;BME280;39326;42.650;23.248;2023-07-13T01:12:32;92875.88;;;21.86;50.24
53041;BME280;39326;42.650;23.248;2023-07-13T01:14:58;92867.13;;;21.92;50.07
53041;BME280;39326;42.650;23.248;2023-07-13T01:17:26;92874.53;;;21.91;50.05
53041;BME280;39326;42.650;23.248;2023-07-13T01:19:52;92876.16;;;21.88;50.65
53041;BME280;39326;42.650;23.248;2023-07-13T01:22:18;92876.00;;;21.83;51.18
53041;BME280;39326;42.650;23.248;2023-07-13T01:24:47;92874.28;;;21.76;51.37
53041;BME280;39326;42.650;23.248;2023-07-13T01:27:15;92870.19;;;21.72;51.89
53041;BME280;39326;42.650;23.248;2023-07-13T01:29:42;92869.28;;;21.66;52.35
53041;BME280;39326;42.650;23.248;2023-07-13T01:32:10;92863.97;;;21.62;52.39
53041;BME280;39326;42.650;23.248;2023-07-13T01:34:36;92872.56;;;21.60;52.43
53041;BME280;39326;42.650;23.248;2023-07-13T01:37:03;92866.19;;;21.54;52.23
53041;BME280;39326;42.650;23.248;2023-07-13T01:39:29;92860.41;;;21.43;52.83
53041;BME280;39326;42.650;23.248;2023-07-13T01:41:54;92861.59;;;21.42;53.04
53041;BME280;39326;42.650;23.248;2023-07-13T01:44:20;92857.81;;;21.40;52.92
53041;BME280;39326;42.650;23.248;2023-07-13T01:46:45;92854.16;;;21.33;53.33
53041;BME280;39326;42.650;23.248;2023-07-13T01:49:11;92853.09;;;21.31;53.33
53041;BME280;39326;42.650;23.248;2023-07-13T01:51:36;92855.19;;;21.27;53.10
53041;BME280;39326;42.650;23.248;2023-07-13T01:54:02;92854.84;;;21.25;53.61
53041;BME280;39326;42.650;23.248;2023-07-13T01:56:27;92859.53;;;21.24;53.38
53041;BME280;39326;42.650;23.248;2023-07-13T01:58:53;92852.16;;;21.25;53.61
53041;BME280;39326;42.650;23.248;2023-07-13T02:01:18;92861.59;;;21.20;54.19
53041;BME280;39326;42.650;23.248;2023-07-13T02:03:44;92862.81;;;21.19;54.23
53041;BME280;39326;42.650;23.248;2023-07-13T02:06:09;92865.16;;;21.08;54.58
53041;BME280;39326;42.650;23.248;2023-07-13T02:08:35;92868.31;;;21.06;54.45
53041;BME280;39326;42.650;23.248;2023-07-13T02:11:02;92868.19;;;21.10;54.87
53041;BME280;39326;42.650;23.248;2023-07-13T02:13:28;92870.91;;;21.10;54.93
53041;BME280;39326;42.650;23.248;2023-07-13T02:15:53;92865.16;;;21.08;55.26
53041;BME280;39326;42.650;23.248;2023-07-13T02:18:19;92875.56;;;21.10;55.27
53041;BME280;39326;42.650;23.248;2023-07-13T02:20:45;92876.53;;;21.03;55.32
53041;BME280;39326;42.650;23.248;2023-07-13T02:23:11;92879.81;;;20.98;56.04
53041;BME280;39326;42.650;23.248;2023-07-13T02:25:36;92879.63;;;20.92;56.34
53041;BME280;39326;42.650;23.248;2023-07-13T02:28:02;92876.84;;;20.83;57.48
53041;BME280;39326;42.650;23.248;2023-07-13T02:30:27;92882.28;;;20.83;56.85
53041;BME280;39326;42.650;23.248;2023-07-13T02:32:55;92879.22;;;20.81;57.13
53041;BME280;39326;42.650;23.248;2023-07-13T02:35:21;92880.22;;;20.74;57.31
53041;BME280;39326;42.650;23.248;2023-07-13T02:37:46;92880.38;;;20.71;57.98
53041;BME280;39326;42.650;23.248;2023-07-13T02:40:12;92867.97;;;20.70;57.69
53041;BME280;39326;42.650;23.248;2023-07-13T02:42:38;92876.56;;;20.68;57.98
53041;BME280;39326;42.650;23.248;2023-07-13T02:45:03;92868.56;;;20.65;58.06
53041;BME280;39326;42.650;23.248;2023-07-13T02:47:31;92878.75;;;20.61;58.79
53041;BME280;39326;42.650;23.248;2023-07-13T02:49:56;92869.44;;;20.62;58.88
53041;BME280;39326;42.650;23.248;2023-07-13T02:52:22;92876.59;;;20.55;59.15
53041;BME280;39326;42.650;23.248;2023-07-13T02:54:47;92867.72;;;20.55;58.98
53041;BME280;39326;42.650;23.248;2023-07-13T02:57:13;92875.84;;;20.55;59.74
53041;BME280;39326;42.650;23.248;2023-07-13T02:59:38;92873.56;;;20.53;59.82
53041;BME280;39326;42.650;23.248;2023-07-13T03:02:04;92874.03;;;20.52;59.66
53041;BME280;39326;42.650;23.248;2023-07-13T03:04:29;92879.44;;;20.52;59.76
53041;BME280;39326;42.650;23.248;2023-07-13T03:06:55;92881.81;;;20.50;59.71
53041;BME280;39326;42.650;23.248;2023-07-13T03:09:24;92883.44;;;20.47;60.28
53041;BME280;39326;42.650;23.248;2023-07-13T03:11:49;92878.69;;;20.51;60.04
53041;BME280;39326;42.650;23.248;2023-07-13T03:14:17;92882.47;;;20.54;60.31
53041;BME280;39326;42.650;23.248;2023-07-13T03:16:42;92882.78;;;20.56;60.22
53041;BME280;39326;42.650;23.248;2023-07-13T03:19:07;92877.78;;;20.54;60.51
53041;BME280;39326;42.650;23.248;2023-07-13T03:21:33;92885.81;;;20.58;60.45
53041;BME280;39326;42.650;23.248;2023-07-13T03:23:58;92888.09;;;20.60;60.86
53041;BME280;39326;42.650;23.248;2023-07-13T03:26:24;92881.56;;;20.57;60.87
53041;BME280;39326;42.650;23.248;2023-07-13T03:28:49;92877.34;;;20.56;60.80
53041;BME280;39326;42.650;23.248;2023-07-13T03:31:17;92882.78;;;20.56;61.45
53041;BME280;39326;42.650;23.248;2023-07-13T03:33:43;92883.53;;;20.57;61.64
53041;BME280;39326;42.650;23.248;2023-07-13T03:36:13;92885.81;;;20.58;62.26
53041;BME280;39326;42.650;23.248;2023-07-13T03:38:39;92895.03;;;20.61;61.94
53041;BME280;39326;42.650;23.248;2023-07-13T03:41:05;92892.31;;;20.61;62.11
53041;BME280;39326;42.650;23.248;2023-07-13T03:43:30;92897.63;;;20.64;62.28
53041;BME280;39326;42.650;23.248;2023-07-13T03:45:56;92897.03;;;20.69;61.77
53041;BME280;39326;42.650;23.248;2023-07-13T03:48:21;92895.09;;;20.70;62.36
53041;BME280;39326;42.650;23.248;2023-07-13T03:50:47;92890.31;;;20.74;62.46
53041;BME280;39326;42.650;23.248;2023-07-13T03:53:13;92891.28;;;20.80;62.25
53041;BME280;39326;42.650;23.248;2023-07-13T03:55:38;92887.34;;;20.81;62.28
53041;BME280;39326;42.650;23.248;2023-07-13T03:58:32;92885.94;;;20.89;63.48
53041;BME280;39326;42.650;23.248;2023-07-13T04:00:59;92888.19;;;20.91;63.47
53041;BME280;39326;42.650;23.248;2023-07-13T04:03:26;92892.44;;;20.92;64.03
53041;BME280;39326;42.650;23.248;2023-07-13T04:05:55;92884.50;;;20.97;63.63
53041;BME280;39326;42.650;23.248;2023-07-13T04:08:25;92888.16;;;21.03;62.71
53041;BME280;39326;42.650;23.248;2023-07-13T04:10:51;92889.22;;;21.06;62.49
53041;BME280;39326;42.650;23.248;2023-07-13T04:13:16;92891.41;;;21.11;62.83
53041;BME280;39326;42.650;23.248;2023-07-13T04:15:42;92888.13;;;21.16;62.45
53041;BME280;39326;42.650;23.248;2023-07-13T04:18:07;92883.75;;;21.19;61.57
53041;BME280;39326;42.650;23.248;2023-07-13T04:20:33;92876.72;;;21.21;61.69
53041;BME280;39326;42.650;23.248;2023-07-13T04:22:58;92892.59;;;21.32;61.26
53041;BME280;39326;42.650;23.248;2023-07-13T04:25:24;92894.28;;;21.39;62.11
53041;BME280;39326;42.650;23.248;2023-07-13T04:27:49;92896.13;;;21.42;61.39
53041;BME280;39326;42.650;23.248;2023-07-13T04:30:15;92899.03;;;21.47;61.37
53041;BME280;39326;42.650;23.248;2023-07-13T04:32:40;92896.34;;;21.56;61.25
53041;BME280;39326;42.650;23.248;2023-07-13T04:35:06;92906.19;;;21.63;60.77
53041;BME280;39326;42.650;23.248;2023-07-13T04:37:32;92897.47;;;21.68;59.78
53041;BME280;39326;42.650;23.248;2023-07-13T04:39:57;92904.03;;;21.80;59.50
53041;BME280;39326;42.650;23.248;2023-07-13T04:42:22;92904.53;;;21.87;59.28
53041;BME280;39326;42.650;23.248;2023-07-13T04:44:49;92911.53;;;21.98;60.29
53041;BME280;39326;42.650;23.248;2023-07-13T04:47:14;92912.91;;;22.02;60.17
53041;BME280;39326;42.650;23.248;2023-07-13T04:49:40;92920.47;;;22.07;61.31
53041;BME280;39326;42.650;23.248;2023-07-13T04:52:06;92914.44;;;22.12;61.85
53041;BME280;39326;42.650;23.248;2023-07-13T04:54:33;92926.66;;;22.08;62.88
53041;BME280;39326;42.650;23.248;2023-07-13T04:56:59;92928.22;;;22.18;63.00
53041;BME280;39326;42.650;23.248;2023-07-13T04:59:24;92917.22;;;22.22;63.08
53041;BME280;39326;42.650;23.248;2023-07-13T05:01:50;92921.84;;;22.12;64.30
53041;BME280;39326;42.650;23.248;2023-07-13T05:04:16;92914.50;;;22.22;63.49
53041;BME280;39326;42.650;23.248;2023-07-13T05:06:41;92918.09;;;22.19;63.56
53041;BME280;39326;42.650;23.248;2023-07-13T05:09:07;92926.28;;;22.28;62.97
53041;BME280;39326;42.650;23.248;2023-07-13T05:11:32;92928.09;;;22.31;62.03
53041;BME280;39326;42.650;23.248;2023-07-13T05:13:58;92934.34;;;22.40;61.38
53041;BME280;39326;42.650;23.248;2023-07-13T05:16:23;92929.03;;;22.46;61.16
53041;BME280;39326;42.650;23.248;2023-07-13T05:18:49;92933.47;;;22.53;61.14
53041;BME280;39326;42.650;23.248;2023-07-13T05:21:14;92933.06;;;22.63;60.61
53041;BME280;39326;42.650;23.248;2023-07-13T05:23:40;92922.19;;;22.73;60.19
53041;BME280;39326;42.650;23.248;2023-07-13T05:26:09;92930.38;;;22.82;59.72
53041;BME280;39326;42.650;23.248;2023-07-13T05:28:35;92934.28;;;22.90;59.67
53041;BME280;39326;42.650;23.248;2023-07-13T05:31:01;92930.09;;;22.98;59.97
53041;BME280;39326;42.650;23.248;2023-07-13T05:33:27;92937.19;;;22.95;60.02
53041;BME280;39326;42.650;23.248;2023-07-13T05:35:52;92943.22;;;23.09;59.51
53041;BME280;39326;42.650;23.248;2023-07-13T05:38:18;92938.56;;;23.18;59.12
53041;BME280;39326;42.650;23.248;2023-07-13T05:40:44;92946.59;;;23.22;60.19
53041;BME280;39326;42.650;23.248;2023-07-13T05:43:10;92941.00;;;23.26;60.06
53041;BME280;39326;42.650;23.248;2023-07-13T05:45:35;92947.34;;;23.22;60.39
53041;BME280;39326;42.650;23.248;2023-07-13T05:48:01;92950.22;;;23.10;60.96
53041;BME280;39326;42.650;23.248;2023-07-13T05:50:26;92945.06;;;23.12;60.58
53041;BME280;39326;42.650;23.248;2023-07-13T05:52:52;92949.31;;;23.31;59.87
53041;BME280;39326;42.650;23.248;2023-07-13T05:55:18;92943.09;;;23.40;59.59
53041;BME280;39326;42.650;23.248;2023-07-13T05:57:43;92949.03;;;23.29;60.23
53041;BME280;39326;42.650;23.248;2023-07-13T06:00:09;92932.97;;;23.22;59.54
53041;BME280;39326;42.650;23.248;2023-07-13T06:02:35;92927.69;;;23.46;59.05
53041;BME280;39326;42.650;23.248;2023-07-13T06:05:01;92917.25;;;23.44;60.08
53041;BME280;39326;42.650;23.248;2023-07-13T06:07:26;92925.06;;;23.70;59.39
53041;BME280;39326;42.650;23.248;2023-07-13T06:09:51;92921.16;;;23.62;60.89
53041;BME280;39326;42.650;23.248;2023-07-13T06:12:17;92936.72;;;23.80;60.00
53041;BME280;39326;42.650;23.248;2023-07-13T06:14:42;92939.41;;;23.89;58.62
53041;BME280;39326;42.650;23.248;2023-07-13T06:17:08;92940.94;;;23.99;58.88
53041;BME280;39326;42.650;23.248;2023-07-13T06:19:34;92952.41;;;24.12;57.82
53041;BME280;39326;42.650;23.248;2023-07-13T06:21:59;92951.34;;;24.10;55.82
53041;BME280;39326;42.650;23.248;2023-07-13T06:24:25;92949.31;;;24.28;55.13
53041;BME280;39326;42.650;23.248;2023-07-13T06:26:51;92947.28;;;24.38;55.06
53041;BME280;39326;42.650;23.248;2023-07-13T06:29:16;92945.56;;;24.50;55.27
53041;BME280;39326;42.650;23.248;2023-07-13T06:31:42;92957.72;;;24.49;54.87
53041;BME280;39326;42.650;23.248;2023-07-13T06:34:07;92955.84;;;24.55;54.61
53041;BME280;39326;42.650;23.248;2023-07-13T06:36:33;92955.06;;;24.64;54.67
53041;BME280;39326;42.650;23.248;2023-07-13T06:38:59;92952.00;;;24.71;56.07
53041;BME280;39326;42.650;23.248;2023-07-13T06:41:24;92947.41;;;24.77;53.74
53041;BME280;39326;42.650;23.248;2023-07-13T06:43:52;92949.88;;;24.99;53.86
53041;BME280;39326;42.650;23.248;2023-07-13T06:46:20;92947.56;;;25.21;52.78
53041;BME280;39326;42.650;23.248;2023-07-13T06:48:45;92941.19;;;25.24;52.41
53041;BME280;39326;42.650;23.248;2023-07-13T06:51:11;92943.19;;;25.24;52.27
53041;BME280;39326;42.650;23.248;2023-07-13T06:53:36;92943.63;;;25.46;52.79
53041;BME280;39326;42.650;23.248;2023-07-13T06:56:02;92942.38;;;25.47;52.47
53041;BME280;39326;42.650;23.248;2023-07-13T06:58:27;92943.63;;;25.46;52.57
53041;BME280;39326;42.650;23.248;2023-07-13T07:00:53;92944.59;;;25.73;51.92
53041;BME280;39326;42.650;23.248;2023-07-13T07:03:18;92951.28;;;25.72;51.06
53041;BME280;39326;42.650;23.248;2023-07-13T07:05:44;92952.06;;;25.87;50.78
53041;BME280;39326;42.650;23.248;2023-07-13T07:08:09;92951.63;;;25.88;50.12
53041;BME280;39326;42.650;23.248;2023-07-13T07:10:35;92948.88;;;26.03;50.47
53041;BME280;39326;42.650;23.248;2023-07-13T07:13:01;92949.91;;;26.06;51.41
53041;BME280;39326;42.650;23.248;2023-07-13T07:15:27;92954.91;;;26.07;51.64
53041;BME280;39326;42.650;23.248;2023-07-13T07:17:53;92951.41;;;26.22;50.63
53041;BME280;39326;42.650;23.248;2023-07-13T07:20:18;92951.94;;;26.40;49.79
53041;BME280;39326;42.650;23.248;2023-07-13T07:22:43;92953.94;;;26.40;50.60
53041;BME280;39326;42.650;23.248;2023-07-13T07:25:09;92944.38;;;26.50;49.37
53041;BME280;39326;42.650;23.248;2023-07-13T07:27:34;92949.91;;;26.71;48.97
53041;BME280;39326;42.650;23.248;2023-07-13T07:30:00;92933.94;;;26.84;48.09
53041;BME280;39326;42.650;23.248;2023-07-13T07:32:28;92941.53;;;26.74;49.27
53041;BME280;39326;42.650;23.248;2023-07-13T07:34:54;92947.53;;;26.78;49.91
53041;BME280;39326;42.650;23.248;2023-07-13T07:37:19;92942.72;;;26.73;49.15
53041;BME280;39326;42.650;23.248;2023-07-13T07:39:45;92943.03;;;26.95;48.16
53041;BME280;39326;42.650;23.248;2023-07-13T07:42:10;92939.06;;;26.96;47.78
53041;BME280;39326;42.650;23.248;2023-07-13T07:44:40;92937.72;;;27.07;48.24
53041;BME280;39326;42.650;23.248;2023-07-13T07:47:06;92927.78;;;27.30;47.83
53041;BME280;39326;42.650;23.248;2023-07-13T07:49:32;92925.75;;;27.25;49.56
53041;BME280;39326;42.650;23.248;2023-07-13T07:51:57;92931.34;;;27.36;51.03
53041;BME280;39326;42.650;23.248;2023-07-13T07:54:23;92923.72;;;27.45;49.69
53041;BME280;39326;42.650;23.248;2023-07-13T07:56:48;92937.19;;;27.43;49.63
53041;BME280;39326;42.650;23.248;2023-07-13T07:59:13;92920.06;;;27.54;49.58
53041;BME280;39326;42.650;23.248;2023-07-13T08:01:39;92923.28;;;27.73;48.43
53041;BME280;39326;42.650;23.248;2023-07-13T08:04:04;92904.47;;;27.86;48.42
53041;BME280;39326;42.650;23.248;2023-07-13T08:06:32;92911.88;;;28.06;48.25
53041;BME280;39326;42.650;23.248;2023-07-13T08:08:59;92905.63;;;28.32;48.28
53041;BME280;39326;42.650;23.248;2023-07-13T08:11:24;92898.56;;;28.62;48.50
53041;BME280;39326;42.650;23.248;2023-07-13T08:13:50;92903.72;;;28.49;47.50
53041;BME280;39326;42.650;23.248;2023-07-13T08:16:16;92899.03;;;28.23;47.66
53041;BME280;39326;42.650;23.248;2023-07-13T08:18:41;92895.31;;;28.26;48.32
53041;BME280;39326;42.650;23.248;2023-07-13T08:21:08;92895.69;;;28.40;47.68
53041;BME280;39326;42.650;23.248;2023-07-13T08:23:34;92898.44;;;28.40;48.48
53041;BME280;39326;42.650;23.248;2023-07-13T08:26:00;92894.44;;;28.41;47.51
53041;BME280;39326;42.650;23.248;2023-07-13T08:28:30;92896.69;;;28.85;47.09
53041;BME280;39326;42.650;23.248;2023-07-13T08:31:00;92895.44;;;28.86;46.43
53041;BME280;39326;42.650;23.248;2023-07-13T08:33:26;92904.16;;;28.79;44.42
53041;BME280;39326;42.650;23.248;2023-07-13T08:35:51;92901.19;;;28.82;44.15
53041;BME280;39326;42.650;23.248;2023-07-13T08:38:17;92886.63;;;29.19;43.87
53041;BME280;39326;42.650;23.248;2023-07-13T08:40:43;92885.50;;;29.54;43.13
53041;BME280;39326;42.650;23.248;2023-07-13T08:43:16;92893.00;;;29.59;44.24
53041;BME280;39326;42.650;23.248;2023-07-13T08:45:56;92890.75;;;29.57;44.31
53041;BME280;39326;42.650;23.248;2023-07-13T08:48:35;92891.50;;;29.58;43.50
53041;BME280;39326;42.650;23.248;2023-07-13T08:51:31;92900.78;;;29.94;42.78
53041;BME280;39326;42.650;23.248;2023-07-13T08:54:01;92898.53;;;29.98;43.05
53041;BME280;39326;42.650;23.248;2023-07-13T08:56:29;92899.34;;;30.32;40.77
53041;BME280;39326;42.650;23.248;2023-07-13T08:58:58;92901.09;;;30.58;42.12
53041;BME280;39326;42.650;23.248;2023-07-13T09:01:31;92904.81;;;30.66;40.47
53041;BME280;39326;42.650;23.248;2023-07-13T09:04:19;92914.75;;;30.97;41.53
53041;BME280;39326;42.650;23.248;2023-07-13T09:07:14;92917.00;;;30.93;39.92
53041;BME280;39326;42.650;23.248;2023-07-13T09:15:03;92929.22;;;31.20;38.13
53041;BME280;39326;42.650;23.248;2023-07-13T09:17:41;92933.38;;;31.43;38.57
53041;BME280;39326;42.650;23.248;2023-07-13T09:23:14;92931.66;;;31.40;39.64
53041;BME280;39326;42.650;23.248;2023-07-13T09:25:40;92935.31;;;31.71;38.97
53041;BME280;39326;42.650;23.248;2023-07-13T09:28:29;92930.63;;;31.43;37.75
53041;BME280;39326;42.650;23.248;2023-07-13T09:33:21;92932.59;;;31.54;37.13
53041;BME280;39326;42.650;23.248;2023-07-13T09:35:48;92935.94;;;31.88;37.72
53041;BME280;39326;42.650;23.248;2023-07-13T09:38:17;92934.94;;;31.91;37.06
53041;BME280;39326;42.650;23.248;2023-07-13T09:40:53;92937.66;;;31.97;39.37
53041;BME280;39326;42.650;23.248;2023-07-13T09:43:22;92927.44;;;32.27;36.72
53041;BME280;39326;42.650;23.248;2023-07-13T09:45:47;92919.41;;;32.54;34.20
53041;BME280;39326;42.650;23.248;2023-07-13T09:48:14;92920.31;;;32.68;30.70
53041;BME280;39326;42.650;23.248;2023-07-13T09:50:42;92920.03;;;32.71;29.13
53041;BME280;39326;42.650;23.248;2023-07-13T09:53:15;92902.50;;;32.88;29.19
53041;BME280;39326;42.650;23.248;2023-07-13T09:55:43;92904.59;;;32.81;28.63
53041;BME280;39326;42.650;23.248;2023-07-13T09:58:18;92901.25;;;32.64;26.53
53041;BME280;39326;42.650;23.248;2023-07-13T10:00:56;92900.81;;;32.54;25.94
53041;BME280;39326;42.650;23.248;2023-07-13T10:03:28;92889.72;;;32.60;28.15
53041;BME280;39326;42.650;23.248;2023-07-13T10:05:53;92883.34;;;32.71;27.27
53041;BME280;39326;42.650;23.248;2023-07-13T10:08:26;92887.56;;;32.77;27.58
53041;BME280;39326;42.650;23.248;2023-07-13T10:11:31;92874.34;;;33.14;27.66
53041;BME280;39326;42.650;23.248;2023-07-13T10:14:00;92878.06;;;33.41;27.26
53041;BME280;39326;42.650;23.248;2023-07-13T10:16:32;92888.44;;;33.53;27.09
53041;BME280;39326;42.650;23.248;2023-07-13T10:21:30;92892.91;;;33.56;26.30
53041;BME280;39326;42.650;23.248;2023-07-13T10:24:16;92887.38;;;33.56;26.16
53041;BME280;39326;42.650;23.248;2023-07-13T10:29:22;92882.84;;;33.59;27.18
53041;BME280;39326;42.650;23.248;2023-07-13T10:31:49;92877.31;;;33.59;27.16
53041;BME280;39326;42.650;23.248;2023-07-13T10:34:15;92882.16;;;33.91;26.87
53041;BME280;39326;42.650;23.248;2023-07-13T10:36:47;92869.84;;;34.05;28.25
53041;BME280;39326;42.650;23.248;2023-07-13T10:39:22;92868.97;;;33.97;26.99
53041;BME280;39326;42.650;23.248;2023-07-13T10:41:53;92867.09;;;34.05;26.76
53041;BME280;39326;42.650;23.248;2023-07-13T10:44:29;92865.66;;;34.17;27.21
53041;BME280;39326;42.650;23.248;2023-07-13T10:47:07;92867.47;;;34.28;27.10
53041;BME280;39326;42.650;23.248;2023-07-13T10:49:34;92860.34;;;34.00;25.40
53041;BME280;39326;42.650;23.248;2023-07-13T10:52:02;92847.47;;;34.03;26.61
53041;BME280;39326;42.650;23.248;2023-07-13T10:54:31;92853.31;;;34.18;26.91
53041;BME280;39326;42.650;23.248;2023-07-13T10:57:26;92851.84;;;34.30;27.07
53041;BME280;39326;42.650;23.248;2023-07-13T11:02:35;92841.78;;;34.73;25.27
53041;BME280;39326;42.650;23.248;2023-07-13T11:05:20;92840.19;;;34.77;26.00
53041;BME280;39326;42.650;23.248;2023-07-13T11:07:54;92834.63;;;34.90;26.98
53041;BME280;39326;42.650;23.248;2023-07-13T11:10:54;92830.25;;;35.22;25.88
53041;BME280;39326;42.650;23.248;2023-07-13T11:16:00;92822.56;;;35.01;25.58
53041;BME280;39326;42.650;23.248;2023-07-13T11:18:25;92817.91;;;34.83;25.81
53041;BME280;39326;42.650;23.248;2023-07-13T11:20:51;92818.72;;;34.91;26.50
53041;BME280;39326;42.650;23.248;2023-07-13T11:23:27;92812.03;;;35.00;26.54
53041;BME280;39326;42.650;23.248;2023-07-13T11:25:53;92814.09;;;35.33;26.48
53041;BME280;39326;42.650;23.248;2023-07-13T11:28:24;92807.56;;;35.44;25.66
53041;BME280;39326;42.650;23.248;2023-07-13T11:31:01;92815.78;;;35.50;28.17
53041;BME280;39326;42.650;23.248;2023-07-13T11:36:16;92809.38;;;35.55;25.17
53041;BME280;39326;42.650;23.248;2023-07-13T11:38:45;92793.56;;;35.50;25.80
53041;BME280;39326;42.650;23.248;2023-07-13T11:43:44;92810.97;;;35.50;25.01
53041;BME280;39326;42.650;23.248;2023-07-13T11:46:24;92802.19;;;35.59;24.35
53041;BME280;39326;42.650;23.248;2023-07-13T11:48:51;92797.97;;;35.79;25.76
53041;BME280;39326;42.650;23.248;2023-07-13T11:51:28;92796.81;;;35.75;25.34
53041;BME280;39326;42.650;23.248;2023-07-13T11:54:00;92802.50;;;35.90;26.55
53041;BME280;39326;42.650;23.248;2023-07-13T11:56:26;92793.69;;;35.78;25.42
53041;BME280;39326;42.650;23.248;2023-07-13T11:58:55;92795.28;;;36.08;25.87
53041;BME280;39326;42.650;23.248;2023-07-13T12:01:24;92777.22;;;36.22;24.87
53041;BME280;39326;42.650;23.248;2023-07-13T12:03:52;92790.25;;;36.27;25.47
53041;BME280;39326;42.650;23.248;2023-07-13T12:06:26;92779.28;;;36.21;26.74
53041;BME280;39326;42.650;23.248;2023-07-13T12:08:56;92776.25;;;36.12;25.71
53041;BME280;39326;42.650;23.248;2023-07-13T12:11:22;92774.66;;;36.24;28.19
53041;BME280;39326;42.650;23.248;2023-07-13T12:13:47;92778.78;;;36.31;25.19
53041;BME280;39326;42.650;23.248;2023-07-13T12:16:25;92782.06;;;35.80;26.45
53041;BME280;39326;42.650;23.248;2023-07-13T12:18:53;92775.78;;;36.00;26.24
53041;BME280;39326;42.650;23.248;2023-07-13T12:21:19;92768.19;;;36.01;24.60
53041;BME280;39326;42.650;23.248;2023-07-13T12:23:48;92760.88;;;36.11;26.85
53041;BME280;39326;42.650;23.248;2023-07-13T12:26:15;92754.00;;;35.91;25.22
53041;BME280;39326;42.650;23.248;2023-07-13T12:28:49;92759.53;;;36.33;25.09
53041;BME280;39326;42.650;23.248;2023-07-13T12:31:41;92758.78;;;36.61;25.41
53041;BME280;39326;42.650;23.248;2023-07-13T12:34:22;92761.19;;;36.57;25.39
53041;BME280;39326;42.650;23.248;2023-07-13T12:37:00;92751.16;;;36.53;24.32
53041;BME280;39326;42.650;23.248;2023-07-13T12:39:46;92741.78;;;36.64;23.66
53041;BME280;39326;42.650;23.248;2023-07-13T12:42:26;92745.44;;;36.59;23.88
53041;BME280;39326;42.650;23.248;2023-07-13T12:45:17;92741.38;;;36.96;23.84
53041;BME280;39326;42.650;23.248;2023-07-13T12:47:47;92738.00;;;36.90;23.83
53041;BME280;39326;42.650;23.248;2023-07-13T12:50:19;92729.03;;;36.76;23.62
53041;BME280;39326;42.650;23.248;2023-07-13T12:53:01;92736.75;;;36.63;24.99
53041;BME280;39326;42.650;23.248;2023-07-13T12:55:28;92739.97;;;36.74;24.57
53041;BME280;39326;42.650;23.248;2023-07-13T12:57:58;92734.69;;;36.92;24.62
53041;BME280;39326;42.650;23.248;2023-07-13T13:00:30;92727.59;;;36.91;23.93
53041;BME280;39326;42.650;23.248;2023-07-13T13:03:02;92730.94;;;36.89;23.01
53041;BME280;39326;42.650;23.248;2023-07-13T13:05:29;92719.25;;;36.91;24.03
53041;BME280;39326;42.650;23.248;2023-07-13T13:07:55;92726.00;;;37.03;23.58
53041;BME280;39326;42.650;23.248;2023-07-13T13:10:20;92722.50;;;37.10;24.31
53041;BME280;39326;42.650;23.248;2023-07-13T13:12:46;92718.47;;;37.19;25.64
53041;BME280;39326;42.650;23.248;2023-07-13T13:15:13;92718.00;;;37.43;23.92
53041;BME280;39326;42.650;23.248;2023-07-13T13:17:39;92712.00;;;37.31;25.10
53041;BME280;39326;42.650;23.248;2023-07-13T13:20:14;92707.91;;;37.32;23.84
53041;BME280;39326;42.650;23.248;2023-07-13T13:22:41;92723.13;;;37.31;25.14
53041;BME280;39326;42.650;23.248;2023-07-13T13:25:12;92705.34;;;37.42;24.79